Latest Coastal Weather Observations for South Johnstone

IDQ60701

Issued at 9:15 pm EST Friday 28 November 2014 (issued every 10 minutes, with the page automatically refreshed every 10 minutes)

About coastal observations | Map of coastal stations | Coastal observations for QLD | Marine services | Other Formats
Station Details ID: 032037 Name: SOUTH JOHNSTONE EXP STN Lat: -17.61 Lon: 146.00 Height: 18.3 m
Data from the previous 72 hours. | See also: Recent months at South Johnstone
Date/Time
EST
Temp

°C
Wind Pressure Rain
since 9am
mm
Weather Cloud Vis
km
Sea
Height
m
Swell
Dir
 
Speed
knots
Gust
knots
hPa Trend Height
m
Period
s
Dir
28/09:00pm 24.9 S 4 6 1012.9 - 0.0 - - - - - - -
28/08:30pm 24.7 S 4 6 1012.7 - 0.0 - - - - - - -
28/08:00pm 24.9 S 4 6 1012.6 - 0.0 - - - - - - -
28/07:30pm 25.4 S 5 7 1012.4 - 0.0 - - - - - - -
28/07:00pm 25.1 SSE 3 4 1012.1 - 0.0 - - - - - - -
28/06:30pm 26.2 SE 6 9 1011.7 - 0.0 - - - - - - -
28/06:00pm 26.9 SE 8 12 1011.4 - 0.0 - - - - - - -
28/05:30pm 27.8 SE 8 13 1011.2 - 0.0 - - - - - - -
28/05:00pm 28.0 ESE 10 14 1011.1 - 0.0 - - - - - - -
28/04:30pm 28.9 ESE 10 17 1011.0 - 0.0 - - - - - - -
28/04:00pm 28.8 ESE 11 17 1010.9 - 0.0 - - - - - - -
28/03:30pm 29.6 SE 11 17 1010.9 - 0.0 - - - - - - -
28/03:00pm 29.6 SE 11 15 1011.0 - 0.0 - - - - - - -
28/02:30pm 29.1 SE 10 15 1011.2 - 0.0 - - - - - - -
28/02:00pm 29.3 SE 11 17 1011.4 - 0.0 - - - - - - -
28/01:30pm 29.7 SE 11 17 1011.4 - 0.0 - - - - - - -
28/01:00pm 29.9 ESE 10 16 1011.7 - 0.0 - - - - - - -
28/12:30pm 30.0 SE 10 15 1011.9 - 0.0 - - - - - - -
28/12:00pm 29.4 SE 8 13 1012.1 - 0.0 - - - - - - -
28/11:30am 29.8 SE 8 12 1012.6 - 0.0 - - - - - - -
28/11:00am 28.8 E 9 13 1012.8 - 0.0 - - - - - - -
28/10:30am 29.2 ESE 6 10 1013.1 - 0.0 - - - - - - -
28/10:00am 28.7 ESE 6 11 1013.2 - 0.0 - - - - - - -
28/09:30am 29.4 E 5 10 1013.2 - 0.0 - - - - - - -
28/09:00am 27.9 E 5 8 1013.1 - 0.0 - - - - - - -
28/08:30am 27.1 SSE 4 7 1013.0 - 0.0 - - - - - - -
28/08:00am 26.2 CALM 0 3 1012.9 - 0.0 - - - - - - -
28/07:30am 24.2 CALM 0 0 1012.8 - 0.0 - - - - - - -
28/07:00am 22.4 WNW 1 4 1012.6 - 0.0 - - - - - - -
28/06:30am 21.5 W 4 5 1012.3 - 0.0 - - - - - - -
28/06:00am 20.3 W 3 6 1012.1 - 0.0 - - - - - - -
28/05:30am 20.3 W 4 6 1011.9 - 0.0 - - - - - - -
28/05:00am 20.5 CALM 0 3 1011.8 - 0.0 - - - - - - -
28/04:30am 20.4 WSW 2 5 1011.6 - 0.0 - - - - - - -
28/04:00am 20.8 NW 1 4 1011.6 - 0.0 - - - - - - -
28/03:30am 20.8 WNW 3 5 1011.5 - 0.0 - - - - - - -
28/03:00am 20.7 W 3 5 1011.2 - 0.0 - - - - - - -
28/02:30am 20.7 WNW 3 5 1011.6 - 0.0 - - - - - - -
28/02:00am 20.7 W 3 5 1011.6 - 0.0 - - - - - - -
28/01:30am 20.9 CALM 0 2 1011.7 - 0.0 - - - - - - -
28/01:00am 21.2 W 2 4 1012.0 - 0.0 - - - - - - -
28/12:30am 21.1 CALM 0 2 1012.4 - 0.0 - - - - - - -
28/12:00am 21.1 W 5 7 1012.3 - 0.0 - - - - - - -
 
Date/Time
EST
Temp

°C
Wind Pressure Rain
since 9am
mm
Weather Cloud Vis
km
Sea
Height
m
Swell
Dir
 
Speed
knots
Gust
knots
hPa Trend Height
m
Period
s
Dir
27/11:30pm 21.2 WSW 5 6 1012.6 - 0.0 - - - - - - -
27/11:00pm 21.5 WSW 4 6 1012.6 - 0.0 - - - - - - -
27/10:30pm 21.7 W 3 5 1012.8 - 0.0 - - - - - - -
27/10:00pm 21.8 W 3 6 1012.9 - 0.0 - - - - - - -
27/09:30pm 21.9 W 5 7 1012.8 - 0.0 - - - - - - -
27/09:00pm 22.4 W 3 6 1012.5 - 0.0 - - - - - - -
27/08:30pm 22.8 W 1 3 1012.5 - 0.0 - - - - - - -
27/08:00pm 23.6 WSW 3 5 1012.6 - 0.0 - - - - - - -
27/07:30pm 25.2 SSW 4 6 1012.2 - 0.0 - - - - - - -
27/07:00pm 24.7 CALM 0 4 1012.1 - 0.0 - - - - - - -
27/06:30pm 25.6 SSE 4 6 1011.7 - 0.0 - - - - - - -
27/06:00pm 26.8 SE 7 9 1011.4 - 0.0 - - - - - - -
27/05:30pm 27.6 SE 8 11 1011.3 - 0.0 - - - - - - -
27/05:00pm 28.7 SE 7 11 1010.8 - 0.0 - - - - - - -
27/04:30pm 29.0 ESE 8 13 1010.6 - 0.0 - - - - - - -
27/04:00pm 29.0 SE 9 14 1010.4 - 0.0 - - - - - - -
27/03:30pm 29.8 SE 8 14 1010.4 - 0.0 - - - - - - -
27/03:00pm 29.8 SE 8 13 1010.5 - 0.0 - - - - - - -
27/02:30pm 29.5 ESE 9 14 1010.8 - 0.0 - - - - - - -
27/02:00pm 29.9 ESE 8 13 1011.1 - 0.0 - - - - - - -
27/01:30pm 29.6 SE 7 11 1011.3 - 0.0 - - - - - - -
27/01:00pm 29.8 SE 8 12 1011.6 - 0.0 - - - - - - -
27/12:30pm 30.2 ESE 8 14 1011.8 - 0.0 - - - - - - -
27/12:00pm 30.3 SE 7 14 1012.0 - 0.0 - - - - - - -
27/11:30am 29.6 SE 7 12 1012.4 - 0.0 - - - - - - -
27/11:00am 28.9 SSE 8 12 1012.9 - 0.0 - - - - - - -
27/10:30am 29.1 SE 7 11 1013.3 - 0.0 - - - - - - -
27/10:00am 28.6 ESE 6 11 1013.4 - 0.0 - - - - - - -
27/09:30am 27.5 SE 5 8 1013.6 - 0.0 - - - - - - -
27/09:00am 27.0 ESE 5 8 1013.5 - 30.0 - - - - - - -
27/08:30am 26.7 W 1 3 1013.7 - 30.0 - - - - - - -
27/08:00am 25.6 ESE 1 4 1013.9 - 30.0 - - - - - - -
27/07:30am 23.8 E 3 4 1013.9 - 30.0 - - - - - - -
27/07:00am 22.6 SW 3 5 1013.7 - 30.0 - - - - - - -
27/06:30am 22.1 WSW 4 5 1013.2 - 30.0 - - - - - - -
27/06:00am 22.1 WSW 3 4 1012.8 - 30.0 - - - - - - -
27/05:30am 22.1 WSW 1 3 1012.6 - 30.0 - - - - - - -
27/05:00am 22.2 WSW 5 6 1012.1 - 30.0 - - - - - - -
27/04:30am 22.4 WSW 3 5 1012.1 - 30.0 - - - - - - -
27/04:00am 22.8 W 3 4 1012.0 - 30.0 - - - - - - -
27/03:30am 22.8 W 3 5 1011.8 - 30.0 - - - - - - -
27/03:00am 22.8 WSW 3 6 1011.9 - 30.0 - - - - - - -
27/02:30am 22.9 WNW 2 4 1012.1 - 29.8 - - - - - - -
27/02:00am 22.9 WSW 3 7 1012.0 - 29.8 - - - - - - -
27/01:30am 22.9 WSW 5 7 1012.0 - 29.8 - - - - - - -
27/01:00am 22.8 SW 2 4 1012.3 - 29.0 - - - - - - -
27/12:30am 23.0 N 1 4 1012.5 - 24.6 - - - - - - -
27/12:00am 23.6 SSE 1 3 1012.8 - 18.2 - - - - - - -
 
Date/Time
EST
Temp

°C
Wind Pressure Rain
since 9am
mm
Weather Cloud Vis
km
Sea
Height
m
Swell
Dir
 
Speed
knots
Gust
knots
hPa Trend Height
m
Period
s
Dir
26/11:30pm 23.6 CALM 0 0 1013.1 - 13.6 - - - - - - -
26/11:00pm 23.8 CALM 0 0 1013.3 - 11.8 - - - - - - -
26/10:30pm 23.9 W 2 5 1013.4 - 11.0 - - - - - - -
26/10:00pm 23.9 W 3 5 1013.4 - 6.6 - - - - - - -
26/09:30pm 24.0 CALM 0 0 1013.3 - 6.6 - - - - - - -
26/09:00pm 23.9 CALM 0 0 1012.9 - 6.6 - - - - - - -
26/08:30pm 24.1 SE 2 4 1012.8 - 6.6 - - - - - - -
26/08:00pm 23.9 E 6 9 1012.6 - 6.4 - - - - - - -
26/07:30pm 24.6 W 3 6 1012.1 - 5.8 - - - - - - -
26/07:00pm 24.3 NW 2 4 1012.0 - 5.8 - - - - - - -
26/06:30pm 24.1 CALM 0 0 1011.7 - 5.6 - - - - - - -
26/06:00pm 24.2 S 5 8 1011.5 - 5.6 - - - - - - -
26/05:30pm 27.7 SE 8 11 1011.3 - 5.0 - - - - - - -
26/05:00pm 29.5 E 6 9 1011.0 - 5.0 - - - - - - -
26/04:30pm 29.4 E 7 11 1010.7 - 5.0 - - - - - - -
26/04:00pm 29.1 ENE 6 10 1010.7 - 5.0 - - - - - - -
26/03:30pm 29.7 E 7 10 1010.7 - 5.0 - - - - - - -
26/03:00pm 29.9 ENE 8 13 1010.6 - 5.0 - - - - - - -
26/02:30pm 29.5 ENE 8 13 1010.8 - 5.0 - - - - - - -
26/02:00pm 30.0 E 8 12 1011.1 - 5.0 - - - - - - -
26/01:30pm 30.3 E 8 12 1011.3 - 5.0 - - - - - - -
26/01:00pm 29.7 ENE 8 13 1011.6 - 5.0 - - - - - - -
26/12:30pm 29.9 E 9 14 1011.9 - 5.0 - - - - - - -
26/12:00pm 30.0 E 9 13 1011.9 - 5.0 - - - - - - -
26/11:30am 30.1 E 8 13 1012.4 - 5.0 - - - - - - -
26/11:00am 29.2 E 8 12 1012.7 - 5.0 - - - - - - -
26/10:30am 28.1 ESE 7 13 1012.8 - 5.0 - - - - - - -
26/10:00am 26.4 SE 3 5 1012.9 - 5.0 - - - - - - -
26/09:30am 25.6 CALM 0 5 1012.8 - 1.0 - - - - - - -
26/09:00am 26.1 SSW 5 7 1012.9 - 13.6 - - - - - - -
26/08:30am 24.9 W 2 6 1012.9 - 13.6 - - - - - - -
26/08:00am 23.9 SW 5 6 1012.8 - 12.8 - - - - - - -
26/07:30am 23.2 SSW 4 7 1012.3 - 12.8 - - - - - - -
26/07:00am 23.1 NNE 2 5 1012.1 - 11.4 - - - - - - -
26/06:30am 22.7 W 2 5 1011.4 - 6.0 - - - - - - -
26/06:00am 22.4 W 2 5 1011.0 - 0.2 - - - - - - -
26/05:30am 22.1 WSW 3 6 1010.9 - 0.0 - - - - - - -
26/05:00am 22.2 W 4 6 1010.6 - 0.0 - - - - - - -
26/04:30am 22.2 CALM 0 3 1010.5 - 0.0 - - - - - - -
26/04:00am 21.9 SW 1 3 1010.6 - 0.0 - - - - - - -
26/03:30am 21.8 SSW 1 4 1010.4 - 0.0 - - - - - - -
26/03:00am 21.7 W 4 7 1010.1 - 0.0 - - - - - - -
26/02:30am 22.0 W 4 6 1010.4 - 0.0 - - - - - - -
26/02:00am 22.2 WSW 6 7 1010.6 - 0.0 - - - - - - -
26/01:30am 22.4 W 4 7 1010.8 - 0.0 - - - - - - -
26/01:00am 22.3 W 2 4 1011.1 - 0.0 - - - - - - -
26/12:30am 22.6 W 4 6 1011.5 - 0.0 - - - - - - -
26/12:00am 23.0 WSW 5 8 1011.9 - 0.0 - - - - - - -
 
Date/Time
EST
Temp

°C
Wind Pressure Rain
since 9am
mm
Weather Cloud Vis
km
Sea
Height
m
Swell
Dir
 
Speed
knots
Gust
knots
hPa Trend Height
m
Period
s
Dir
25/11:30pm 22.9 WSW 5 7 1012.5 - 0.0 - - - - - - -
25/11:00pm 22.8 W 4 6 1012.9 - 0.0 - - - - - - -
25/10:30pm 23.1 WSW 5 7 1013.1 - 0.0 - - - - - - -
25/10:00pm 23.3 WSW 3 5 1013.2 - 0.0 - - - - - - -
25/09:30pm 23.5 CALM 0 4 1012.9 - 0.0 - - - - - - -

Other Formats:

Comma delimited format used in spreadsheet applications
http://www.bom.gov.au/fwo/IDQ60701/IDQ60701.95292.axf

JavaScript Object Notation format (JSON) in row-major order
http://www.bom.gov.au/fwo/IDQ60701/IDQ60701.95292.json